sensor_id;sensor_type;location;lat;lon;timestamp;P1;durP1;ratioP1;P2;durP2;ratioP2
16468;SDS011;8345;50.902;6.956;2023-02-28T00:00:17;3.23;;;2.70;;
16468;SDS011;8345;50.902;6.956;2023-02-28T00:02:45;3.00;;;2.50;;
16468;SDS011;8345;50.902;6.956;2023-02-28T00:05:14;4.43;;;2.70;;
16468;SDS011;8345;50.902;6.956;2023-02-28T00:07:41;5.07;;;3.10;;
16468;SDS011;8345;50.902;6.956;2023-02-28T00:10:09;3.93;;;3.10;;
16468;SDS011;8345;50.902;6.956;2023-02-28T00:12:37;3.43;;;2.70;;
16468;SDS011;8345;50.902;6.956;2023-02-28T00:15:06;3.50;;;2.70;;
16468;SDS011;8345;50.902;6.956;2023-02-28T00:17:34;3.73;;;2.50;;
16468;SDS011;8345;50.902;6.956;2023-02-28T00:20:01;4.20;;;2.77;;
16468;SDS011;8345;50.902;6.956;2023-02-28T00:22:37;4.53;;;2.70;;
16468;SDS011;8345;50.902;6.956;2023-02-28T00:25:05;3.87;;;2.80;;
16468;SDS011;8345;50.902;6.956;2023-02-28T00:27:33;3.80;;;2.97;;
16468;SDS011;8345;50.902;6.956;2023-02-28T00:30:00;4.87;;;2.70;;
16468;SDS011;8345;50.902;6.956;2023-02-28T00:32:29;3.33;;;2.63;;
16468;SDS011;8345;50.902;6.956;2023-02-28T00:34:56;2.50;;;2.30;;
16468;SDS011;8345;50.902;6.956;2023-02-28T00:37:23;3.50;;;2.83;;
16468;SDS011;8345;50.902;6.956;2023-02-28T00:39:50;3.87;;;2.60;;
16468;SDS011;8345;50.902;6.956;2023-02-28T00:42:17;4.00;;;2.60;;
16468;SDS011;8345;50.902;6.956;2023-02-28T00:44:45;5.07;;;2.90;;
16468;SDS011;8345;50.902;6.956;2023-02-28T00:47:12;6.17;;;2.97;;
16468;SDS011;8345;50.902;6.956;2023-02-28T00:49:40;2.70;;;2.40;;
16468;SDS011;8345;50.902;6.956;2023-02-28T00:52:08;2.73;;;2.50;;
16468;SDS011;8345;50.902;6.956;2023-02-28T00:54:35;3.77;;;2.13;;
16468;SDS011;8345;50.902;6.956;2023-02-28T00:57:02;5.13;;;2.60;;
16468;SDS011;8345;50.902;6.956;2023-02-28T00:59:29;2.50;;;2.30;;
16468;SDS011;8345;50.902;6.956;2023-02-28T01:01:56;5.40;;;3.10;;
16468;SDS011;8345;50.902;6.956;2023-02-28T01:04:24;3.23;;;2.73;;
16468;SDS011;8345;50.902;6.956;2023-02-28T01:06:52;4.40;;;2.77;;
16468;SDS011;8345;50.902;6.956;2023-02-28T01:09:19;2.90;;;2.50;;
16468;SDS011;8345;50.902;6.956;2023-02-28T01:11:46;4.53;;;2.80;;
16468;SDS011;8345;50.902;6.956;2023-02-28T01:14:14;3.57;;;2.47;;
16468;SDS011;8345;50.902;6.956;2023-02-28T01:16:42;2.50;;;2.17;;
16468;SDS011;8345;50.902;6.956;2023-02-28T01:19:09;2.80;;;2.50;;
16468;SDS011;8345;50.902;6.956;2023-02-28T01:21:37;2.90;;;2.60;;
16468;SDS011;8345;50.902;6.956;2023-02-28T01:24:06;3.40;;;2.33;;
16468;SDS011;8345;50.902;6.956;2023-02-28T01:26:33;2.87;;;2.67;;
16468;SDS011;8345;50.902;6.956;2023-02-28T01:29:00;6.03;;;2.50;;
16468;SDS011;8345;50.902;6.956;2023-02-28T01:31:27;2.57;;;2.37;;
16468;SDS011;8345;50.902;6.956;2023-02-28T01:33:54;4.37;;;2.37;;
16468;SDS011;8345;50.902;6.956;2023-02-28T01:36:22;3.60;;;2.30;;
16468;SDS011;8345;50.902;6.956;2023-02-28T01:38:50;2.97;;;2.63;;
16468;SDS011;8345;50.902;6.956;2023-02-28T01:41:19;2.90;;;2.60;;
16468;SDS011;8345;50.902;6.956;2023-02-28T01:43:54;3.97;;;2.47;;
16468;SDS011;8345;50.902;6.956;2023-02-28T01:46:22;3.30;;;2.70;;
16468;SDS011;8345;50.902;6.956;2023-02-28T01:48:50;3.90;;;2.47;;
16468;SDS011;8345;50.902;6.956;2023-02-28T01:51:19;3.33;;;2.70;;
16468;SDS011;8345;50.902;6.956;2023-02-28T01:53:49;2.70;;;2.40;;
16468;SDS011;8345;50.902;6.956;2023-02-28T01:56:20;3.57;;;2.80;;
16468;SDS011;8345;50.902;6.956;2023-02-28T01:58:49;2.80;;;2.47;;
16468;SDS011;8345;50.902;6.956;2023-02-28T02:01:17;2.50;;;2.30;;
16468;SDS011;8345;50.902;6.956;2023-02-28T02:03:46;5.83;;;2.53;;
16468;SDS011;8345;50.902;6.956;2023-02-28T02:06:20;5.23;;;2.90;;
16468;SDS011;8345;50.902;6.956;2023-02-28T02:08:47;4.07;;;2.70;;
16468;SDS011;8345;50.902;6.956;2023-02-28T02:11:15;3.30;;;2.50;;
16468;SDS011;8345;50.902;6.956;2023-02-28T02:13:50;3.20;;;2.63;;
16468;SDS011;8345;50.902;6.956;2023-02-28T02:16:29;3.90;;;2.40;;
16468;SDS011;8345;50.902;6.956;2023-02-28T02:19:00;3.00;;;2.60;;
16468;SDS011;8345;50.902;6.956;2023-02-28T02:21:35;3.33;;;2.73;;
16468;SDS011;8345;50.902;6.956;2023-02-28T02:24:22;3.70;;;2.47;;
16468;SDS011;8345;50.902;6.956;2023-02-28T02:26:58;4.67;;;2.90;;
16468;SDS011;8345;50.902;6.956;2023-02-28T02:35:00;3.90;;;2.43;;
16468;SDS011;8345;50.902;6.956;2023-02-28T02:37:29;3.77;;;2.40;;
16468;SDS011;8345;50.902;6.956;2023-02-28T02:40:00;4.43;;;2.57;;
16468;SDS011;8345;50.902;6.956;2023-02-28T02:42:30;3.53;;;2.80;;
16468;SDS011;8345;50.902;6.956;2023-02-28T02:44:59;3.47;;;2.40;;
16468;SDS011;8345;50.902;6.956;2023-02-28T02:47:28;3.23;;;2.50;;
16468;SDS011;8345;50.902;6.956;2023-02-28T02:49:57;5.63;;;2.50;;
16468;SDS011;8345;50.902;6.956;2023-02-28T02:52:29;3.27;;;2.57;;
16468;SDS011;8345;50.902;6.956;2023-02-28T02:54:59;4.30;;;2.60;;
16468;SDS011;8345;50.902;6.956;2023-02-28T02:57:27;2.43;;;2.23;;
16468;SDS011;8345;50.902;6.956;2023-02-28T02:59:56;3.30;;;2.20;;
16468;SDS011;8345;50.902;6.956;2023-02-28T03:02:24;3.57;;;2.60;;
16468;SDS011;8345;50.902;6.956;2023-02-28T03:04:53;3.87;;;2.40;;
16468;SDS011;8345;50.902;6.956;2023-02-28T03:07:25;3.43;;;2.47;;
16468;SDS011;8345;50.902;6.956;2023-02-28T03:09:54;2.50;;;2.27;;
16468;SDS011;8345;50.902;6.956;2023-02-28T03:12:22;4.40;;;2.93;;
16468;SDS011;8345;50.902;6.956;2023-02-28T03:14:53;4.63;;;2.50;;
16468;SDS011;8345;50.902;6.956;2023-02-28T03:17:25;4.73;;;2.70;;
16468;SDS011;8345;50.902;6.956;2023-02-28T03:19:58;2.60;;;2.40;;
16468;SDS011;8345;50.902;6.956;2023-02-28T03:22:43;3.70;;;2.27;;
16468;SDS011;8345;50.902;6.956;2023-02-28T03:25:17;3.00;;;2.30;;
16468;SDS011;8345;50.902;6.956;2023-02-28T03:27:48;2.70;;;2.50;;
16468;SDS011;8345;50.902;6.956;2023-02-28T03:30:20;2.53;;;2.20;;
16468;SDS011;8345;50.902;6.956;2023-02-28T03:32:51;3.63;;;2.60;;
16468;SDS011;8345;50.902;6.956;2023-02-28T03:35:21;2.67;;;2.47;;
16468;SDS011;8345;50.902;6.956;2023-02-28T03:37:50;2.50;;;2.27;;
16468;SDS011;8345;50.902;6.956;2023-02-28T03:40:21;2.87;;;2.40;;
16468;SDS011;8345;50.902;6.956;2023-02-28T03:42:49;3.73;;;2.40;;
16468;SDS011;8345;50.902;6.956;2023-02-28T03:45:19;2.97;;;2.47;;
16468;SDS011;8345;50.902;6.956;2023-02-28T03:47:49;3.33;;;2.50;;
16468;SDS011;8345;50.902;6.956;2023-02-28T03:50:18;3.67;;;2.63;;
16468;SDS011;8345;50.902;6.956;2023-02-28T03:52:48;3.10;;;2.37;;
16468;SDS011;8345;50.902;6.956;2023-02-28T03:55:17;3.13;;;2.07;;
16468;SDS011;8345;50.902;6.956;2023-02-28T03:57:50;2.60;;;2.40;;
16468;SDS011;8345;50.902;6.956;2023-02-28T04:00:28;4.07;;;2.50;;
16468;SDS011;8345;50.902;6.956;2023-02-28T04:02:57;3.27;;;2.80;;
16468;SDS011;8345;50.902;6.956;2023-02-28T04:05:25;2.50;;;2.30;;
16468;SDS011;8345;50.902;6.956;2023-02-28T04:07:53;4.33;;;2.37;;
16468;SDS011;8345;50.902;6.956;2023-02-28T04:10:20;2.93;;;2.30;;
16468;SDS011;8345;50.902;6.956;2023-02-28T04:12:49;2.13;;;2.00;;
16468;SDS011;8345;50.902;6.956;2023-02-28T04:15:17;2.47;;;2.20;;
16468;SDS011;8345;50.902;6.956;2023-02-28T04:17:47;2.60;;;2.40;;
16468;SDS011;8345;50.902;6.956;2023-02-28T04:20:15;3.10;;;2.27;;
16468;SDS011;8345;50.902;6.956;2023-02-28T04:22:42;3.40;;;2.47;;
16468;SDS011;8345;50.902;6.956;2023-02-28T04:25:09;2.37;;;2.17;;
16468;SDS011;8345;50.902;6.956;2023-02-28T04:27:36;4.83;;;2.30;;
16468;SDS011;8345;50.902;6.956;2023-02-28T04:30:06;2.83;;;2.23;;
16468;SDS011;8345;50.902;6.956;2023-02-28T04:32:33;2.57;;;1.97;;
16468;SDS011;8345;50.902;6.956;2023-02-28T04:35:00;2.33;;;2.13;;
16468;SDS011;8345;50.902;6.956;2023-02-28T04:37:27;4.10;;;2.43;;
16468;SDS011;8345;50.902;6.956;2023-02-28T04:39:54;3.10;;;2.80;;
16468;SDS011;8345;50.902;6.956;2023-02-28T04:42:22;3.00;;;2.40;;
16468;SDS011;8345;50.902;6.956;2023-02-28T04:44:49;3.53;;;2.27;;
16468;SDS011;8345;50.902;6.956;2023-02-28T04:47:17;2.57;;;2.30;;
16468;SDS011;8345;50.902;6.956;2023-02-28T04:49:44;3.70;;;2.83;;
16468;SDS011;8345;50.902;6.956;2023-02-28T04:52:12;3.93;;;2.80;;
16468;SDS011;8345;50.902;6.956;2023-02-28T04:54:39;2.90;;;2.60;;
16468;SDS011;8345;50.902;6.956;2023-02-28T04:57:06;5.03;;;3.20;;
16468;SDS011;8345;50.902;6.956;2023-02-28T04:59:33;2.83;;;2.23;;
16468;SDS011;8345;50.902;6.956;2023-02-28T05:02:00;2.93;;;2.53;;
16468;SDS011;8345;50.902;6.956;2023-02-28T05:04:33;2.83;;;2.53;;
16468;SDS011;8345;50.902;6.956;2023-02-28T05:07:00;2.87;;;2.60;;
16468;SDS011;8345;50.902;6.956;2023-02-28T05:09:28;4.13;;;2.67;;
16468;SDS011;8345;50.902;6.956;2023-02-28T05:11:55;3.50;;;2.93;;
16468;SDS011;8345;50.902;6.956;2023-02-28T05:14:23;4.00;;;2.60;;
16468;SDS011;8345;50.902;6.956;2023-02-28T05:16:50;3.30;;;2.80;;
16468;SDS011;8345;50.902;6.956;2023-02-28T05:19:17;3.03;;;2.67;;
16468;SDS011;8345;50.902;6.956;2023-02-28T05:21:51;3.00;;;2.73;;
16468;SDS011;8345;50.902;6.956;2023-02-28T05:24:19;3.87;;;2.80;;
16468;SDS011;8345;50.902;6.956;2023-02-28T05:26:48;3.57;;;2.80;;
16468;SDS011;8345;50.902;6.956;2023-02-28T05:29:16;4.37;;;3.10;;
16468;SDS011;8345;50.902;6.956;2023-02-28T05:31:43;3.17;;;2.70;;
16468;SDS011;8345;50.902;6.956;2023-02-28T05:34:10;3.13;;;2.43;;
16468;SDS011;8345;50.902;6.956;2023-02-28T05:36:37;3.40;;;2.67;;
16468;SDS011;8345;50.902;6.956;2023-02-28T05:39:06;3.97;;;2.80;;
16468;SDS011;8345;50.902;6.956;2023-02-28T05:41:37;2.40;;;2.20;;
16468;SDS011;8345;50.902;6.956;2023-02-28T05:44:04;2.70;;;2.20;;
16468;SDS011;8345;50.902;6.956;2023-02-28T05:46:32;2.87;;;2.67;;
16468;SDS011;8345;50.902;6.956;2023-02-28T05:48:59;4.03;;;2.50;;
16468;SDS011;8345;50.902;6.956;2023-02-28T05:51:26;3.33;;;2.77;;
16468;SDS011;8345;50.902;6.956;2023-02-28T05:53:53;3.57;;;3.00;;
16468;SDS011;8345;50.902;6.956;2023-02-28T05:56:23;3.23;;;2.83;;
16468;SDS011;8345;50.902;6.956;2023-02-28T05:58:50;2.67;;;2.47;;
16468;SDS011;8345;50.902;6.956;2023-02-28T06:01:22;3.50;;;2.30;;
16468;SDS011;8345;50.902;6.956;2023-02-28T06:03:49;2.73;;;2.50;;
16468;SDS011;8345;50.902;6.956;2023-02-28T06:06:17;2.77;;;2.50;;
16468;SDS011;8345;50.902;6.956;2023-02-28T06:08:44;4.20;;;2.60;;
16468;SDS011;8345;50.902;6.956;2023-02-28T06:11:11;2.63;;;2.40;;
16468;SDS011;8345;50.902;6.956;2023-02-28T06:13:40;6.53;;;2.80;;
16468;SDS011;8345;50.902;6.956;2023-02-28T06:16:07;6.17;;;2.83;;
16468;SDS011;8345;50.902;6.956;2023-02-28T06:18:35;3.60;;;2.90;;
16468;SDS011;8345;50.902;6.956;2023-02-28T06:21:02;3.30;;;2.97;;
16468;SDS011;8345;50.902;6.956;2023-02-28T06:23:29;4.50;;;3.17;;
16468;SDS011;8345;50.902;6.956;2023-02-28T06:25:56;3.73;;;3.20;;
16468;SDS011;8345;50.902;6.956;2023-02-28T06:28:24;4.33;;;2.90;;
16468;SDS011;8345;50.902;6.956;2023-02-28T06:30:52;4.23;;;2.93;;
16468;SDS011;8345;50.902;6.956;2023-02-28T06:33:20;3.37;;;2.60;;
16468;SDS011;8345;50.902;6.956;2023-02-28T06:35:47;3.73;;;3.00;;
16468;SDS011;8345;50.902;6.956;2023-02-28T06:38:16;3.77;;;2.80;;
16468;SDS011;8345;50.902;6.956;2023-02-28T06:40:44;3.40;;;2.97;;
16468;SDS011;8345;50.902;6.956;2023-02-28T06:43:11;5.43;;;2.70;;
16468;SDS011;8345;50.902;6.956;2023-02-28T06:45:41;3.97;;;3.03;;
16468;SDS011;8345;50.902;6.956;2023-02-28T06:48:09;3.87;;;2.67;;
16468;SDS011;8345;50.902;6.956;2023-02-28T06:50:37;4.17;;;3.03;;
16468;SDS011;8345;50.902;6.956;2023-02-28T06:53:04;3.27;;;2.97;;
16468;SDS011;8345;50.902;6.956;2023-02-28T06:55:32;5.07;;;3.20;;
16468;SDS011;8345;50.902;6.956;2023-02-28T06:57:59;3.37;;;3.07;;
16468;SDS011;8345;50.902;6.956;2023-02-28T07:00:26;3.13;;;2.77;;
16468;SDS011;8345;50.902;6.956;2023-02-28T07:02:53;3.83;;;3.30;;
16468;SDS011;8345;50.902;6.956;2023-02-28T07:05:22;5.40;;;3.37;;
16468;SDS011;8345;50.902;6.956;2023-02-28T07:07:49;4.03;;;3.07;;
16468;SDS011;8345;50.902;6.956;2023-02-28T07:10:17;3.83;;;2.93;;
16468;SDS011;8345;50.902;6.956;2023-02-28T07:12:45;3.87;;;3.50;;
16468;SDS011;8345;50.902;6.956;2023-02-28T07:15:12;2.80;;;2.60;;
16468;SDS011;8345;50.902;6.956;2023-02-28T07:17:39;4.57;;;3.00;;
16468;SDS011;8345;50.902;6.956;2023-02-28T07:20:07;3.63;;;3.20;;
16468;SDS011;8345;50.902;6.956;2023-02-28T07:22:36;3.30;;;3.00;;
16468;SDS011;8345;50.902;6.956;2023-02-28T07:25:03;4.97;;;3.10;;
16468;SDS011;8345;50.902;6.956;2023-02-28T07:27:31;3.73;;;3.37;;
16468;SDS011;8345;50.902;6.956;2023-02-28T07:29:59;5.23;;;3.13;;
16468;SDS011;8345;50.902;6.956;2023-02-28T07:32:28;4.60;;;3.03;;
16468;SDS011;8345;50.902;6.956;2023-02-28T07:34:55;4.60;;;2.70;;
16468;SDS011;8345;50.902;6.956;2023-02-28T07:37:23;3.97;;;2.73;;
16468;SDS011;8345;50.902;6.956;2023-02-28T07:39:51;3.40;;;2.93;;
16468;SDS011;8345;50.902;6.956;2023-02-28T07:42:18;3.53;;;2.90;;
16468;SDS011;8345;50.902;6.956;2023-02-28T07:44:46;3.30;;;2.80;;
16468;SDS011;8345;50.902;6.956;2023-02-28T07:47:13;2.70;;;2.50;;
16468;SDS011;8345;50.902;6.956;2023-02-28T07:49:40;3.20;;;2.90;;
16468;SDS011;8345;50.902;6.956;2023-02-28T07:52:07;3.43;;;2.60;;
16468;SDS011;8345;50.902;6.956;2023-02-28T07:54:34;3.00;;;2.70;;
16468;SDS011;8345;50.902;6.956;2023-02-28T07:57:03;3.10;;;2.57;;
16468;SDS011;8345;50.902;6.956;2023-02-28T07:59:30;3.03;;;2.73;;
16468;SDS011;8345;50.902;6.956;2023-02-28T08:01:57;4.30;;;3.10;;
16468;SDS011;8345;50.902;6.956;2023-02-28T08:04:25;2.77;;;2.40;;
16468;SDS011;8345;50.902;6.956;2023-02-28T08:06:52;3.33;;;2.83;;
16468;SDS011;8345;50.902;6.956;2023-02-28T08:09:21;3.03;;;2.63;;
16468;SDS011;8345;50.902;6.956;2023-02-28T08:11:48;2.27;;;2.07;;
16468;SDS011;8345;50.902;6.956;2023-02-28T08:14:17;4.27;;;2.47;;
16468;SDS011;8345;50.902;6.956;2023-02-28T08:16:44;6.33;;;2.33;;
16468;SDS011;8345;50.902;6.956;2023-02-28T08:19:11;3.20;;;2.20;;
16468;SDS011;8345;50.902;6.956;2023-02-28T08:21:38;4.60;;;2.73;;
16468;SDS011;8345;50.902;6.956;2023-02-28T08:24:06;2.23;;;2.03;;
16468;SDS011;8345;50.902;6.956;2023-02-28T08:26:33;2.67;;;2.13;;
16468;SDS011;8345;50.902;6.956;2023-02-28T08:29:00;2.60;;;2.40;;
16468;SDS011;8345;50.902;6.956;2023-02-28T08:31:29;2.17;;;1.93;;
16468;SDS011;8345;50.902;6.956;2023-02-28T08:33:56;2.60;;;2.40;;
16468;SDS011;8345;50.902;6.956;2023-02-28T08:36:24;4.53;;;2.20;;
16468;SDS011;8345;50.902;6.956;2023-02-28T08:38:53;2.50;;;2.03;;
16468;SDS011;8345;50.902;6.956;2023-02-28T08:41:20;2.27;;;1.93;;
16468;SDS011;8345;50.902;6.956;2023-02-28T08:43:47;3.37;;;1.97;;
16468;SDS011;8345;50.902;6.956;2023-02-28T08:46:15;3.03;;;2.00;;
16468;SDS011;8345;50.902;6.956;2023-02-28T08:48:43;2.40;;;2.20;;
16468;SDS011;8345;50.902;6.956;2023-02-28T08:51:11;2.17;;;1.97;;
16468;SDS011;8345;50.902;6.956;2023-02-28T08:53:39;1.97;;;1.77;;
16468;SDS011;8345;50.902;6.956;2023-02-28T08:56:07;1.93;;;1.80;;
16468;SDS011;8345;50.902;6.956;2023-02-28T08:58:34;2.60;;;1.77;;
16468;SDS011;8345;50.902;6.956;2023-02-28T09:01:07;2.37;;;1.97;;
16468;SDS011;8345;50.902;6.956;2023-02-28T09:03:34;1.80;;;1.70;;
16468;SDS011;8345;50.902;6.956;2023-02-28T09:06:03;2.23;;;1.90;;
16468;SDS011;8345;50.902;6.956;2023-02-28T09:08:30;1.87;;;1.67;;
16468;SDS011;8345;50.902;6.956;2023-02-28T09:10:58;1.73;;;1.60;;
16468;SDS011;8345;50.902;6.956;2023-02-28T09:13:25;1.90;;;1.73;;
16468;SDS011;8345;50.902;6.956;2023-02-28T09:15:53;1.97;;;1.67;;
16468;SDS011;8345;50.902;6.956;2023-02-28T09:18:20;3.13;;;1.60;;
16468;SDS011;8345;50.902;6.956;2023-02-28T09:20:47;1.33;;;1.23;;
16468;SDS011;8345;50.902;6.956;2023-02-28T09:23:16;2.00;;;1.60;;
16468;SDS011;8345;50.902;6.956;2023-02-28T09:25:47;2.43;;;1.50;;
16468;SDS011;8345;50.902;6.956;2023-02-28T09:28:15;1.40;;;1.30;;
16468;SDS011;8345;50.902;6.956;2023-02-28T09:30:43;1.73;;;1.63;;
16468;SDS011;8345;50.902;6.956;2023-02-28T09:33:11;2.47;;;1.97;;
16468;SDS011;8345;50.902;6.956;2023-02-28T09:35:38;1.97;;;1.70;;
16468;SDS011;8345;50.902;6.956;2023-02-28T09:38:05;2.13;;;1.50;;
16468;SDS011;8345;50.902;6.956;2023-02-28T09:40:36;2.23;;;1.70;;
16468;SDS011;8345;50.902;6.956;2023-02-28T09:43:04;1.60;;;1.47;;
16468;SDS011;8345;50.902;6.956;2023-02-28T09:45:32;1.97;;;1.67;;
16468;SDS011;8345;50.902;6.956;2023-02-28T09:48:01;2.70;;;1.70;;
16468;SDS011;8345;50.902;6.956;2023-02-28T09:50:30;1.70;;;1.50;;
16468;SDS011;8345;50.902;6.956;2023-02-28T09:52:59;1.87;;;1.70;;
16468;SDS011;8345;50.902;6.956;2023-02-28T09:55:29;2.23;;;2.00;;
16468;SDS011;8345;50.902;6.956;2023-02-28T09:57:58;1.87;;;1.60;;
16468;SDS011;8345;50.902;6.956;2023-02-28T10:00:27;1.70;;;1.57;;
16468;SDS011;8345;50.902;6.956;2023-02-28T10:03:04;1.70;;;1.60;;
16468;SDS011;8345;50.902;6.956;2023-02-28T10:05:34;3.13;;;1.70;;
16468;SDS011;8345;50.902;6.956;2023-02-28T10:08:05;2.17;;;1.80;;
16468;SDS011;8345;50.902;6.956;2023-02-28T10:10:36;2.40;;;2.10;;
16468;SDS011;8345;50.902;6.956;2023-02-28T10:13:06;1.50;;;1.40;;
16468;SDS011;8345;50.902;6.956;2023-02-28T10:15:38;1.63;;;1.53;;
16468;SDS011;8345;50.902;6.956;2023-02-28T10:18:06;1.53;;;1.43;;
16468;SDS011;8345;50.902;6.956;2023-02-28T10:20:38;1.70;;;1.60;;
16468;SDS011;8345;50.902;6.956;2023-02-28T10:23:09;4.80;;;1.67;;
16468;SDS011;8345;50.902;6.956;2023-02-28T10:25:38;3.37;;;1.90;;
16468;SDS011;8345;50.902;6.956;2023-02-28T10:28:10;2.47;;;1.87;;
16468;SDS011;8345;50.902;6.956;2023-02-28T10:30:39;2.20;;;1.83;;
16468;SDS011;8345;50.902;6.956;2023-02-28T10:33:10;2.90;;;1.87;;
16468;SDS011;8345;50.902;6.956;2023-02-28T10:35:42;2.00;;;1.80;;
16468;SDS011;8345;50.902;6.956;2023-02-28T10:38:12;2.57;;;1.77;;
16468;SDS011;8345;50.902;6.956;2023-02-28T10:40:41;2.17;;;1.80;;
16468;SDS011;8345;50.902;6.956;2023-02-28T10:43:18;1.73;;;1.60;;
16468;SDS011;8345;50.902;6.956;2023-02-28T10:45:52;4.10;;;1.90;;
16468;SDS011;8345;50.902;6.956;2023-02-28T10:48:26;1.93;;;1.70;;
16468;SDS011;8345;50.902;6.956;2023-02-28T10:50:54;2.60;;;2.40;;
16468;SDS011;8345;50.902;6.956;2023-02-28T10:53:25;2.20;;;2.00;;
16468;SDS011;8345;50.902;6.956;2023-02-28T10:55:58;2.90;;;2.20;;
16468;SDS011;8345;50.902;6.956;2023-02-28T10:58:28;3.77;;;2.00;;
16468;SDS011;8345;50.902;6.956;2023-02-28T11:00:55;2.00;;;1.80;;
16468;SDS011;8345;50.902;6.956;2023-02-28T11:03:24;2.80;;;2.10;;
16468;SDS011;8345;50.902;6.956;2023-02-28T11:05:52;2.57;;;1.90;;
16468;SDS011;8345;50.902;6.956;2023-02-28T11:08:19;4.10;;;1.93;;
16468;SDS011;8345;50.902;6.956;2023-02-28T11:10:47;2.53;;;1.80;;
16468;SDS011;8345;50.902;6.956;2023-02-28T11:13:16;2.60;;;1.97;;
16468;SDS011;8345;50.902;6.956;2023-02-28T11:15:50;2.53;;;2.03;;
16468;SDS011;8345;50.902;6.956;2023-02-28T11:18:20;2.47;;;2.10;;
16468;SDS011;8345;50.902;6.956;2023-02-28T11:20:48;2.00;;;1.80;;
16468;SDS011;8345;50.902;6.956;2023-02-28T11:23:16;2.80;;;1.90;;
16468;SDS011;8345;50.902;6.956;2023-02-28T11:25:46;3.10;;;2.07;;
16468;SDS011;8345;50.902;6.956;2023-02-28T11:28:23;2.13;;;1.93;;
16468;SDS011;8345;50.902;6.956;2023-02-28T11:31:00;2.57;;;2.33;;
16468;SDS011;8345;50.902;6.956;2023-02-28T11:33:29;2.53;;;2.20;;
16468;SDS011;8345;50.902;6.956;2023-02-28T11:35:57;3.23;;;2.70;;
16468;SDS011;8345;50.902;6.956;2023-02-28T11:38:25;4.67;;;2.90;;
16468;SDS011;8345;50.902;6.956;2023-02-28T11:40:57;2.83;;;2.20;;
16468;SDS011;8345;50.902;6.956;2023-02-28T11:43:37;2.40;;;2.30;;
16468;SDS011;8345;50.902;6.956;2023-02-28T11:46:13;1.83;;;1.73;;
16468;SDS011;8345;50.902;6.956;2023-02-28T11:48:46;3.00;;;2.00;;
16468;SDS011;8345;50.902;6.956;2023-02-28T11:51:18;3.73;;;2.47;;
16468;SDS011;8345;50.902;6.956;2023-02-28T11:53:51;2.00;;;1.80;;
16468;SDS011;8345;50.902;6.956;2023-02-28T11:56:25;2.50;;;1.70;;
16468;SDS011;8345;50.902;6.956;2023-02-28T11:59:00;3.37;;;2.20;;
16468;SDS011;8345;50.902;6.956;2023-02-28T12:01:38;2.10;;;1.97;;
16468;SDS011;8345;50.902;6.956;2023-02-28T12:04:11;2.73;;;1.90;;
16468;SDS011;8345;50.902;6.956;2023-02-28T12:06:44;3.00;;;2.17;;
16468;SDS011;8345;50.902;6.956;2023-02-28T12:09:28;3.40;;;2.10;;
16468;SDS011;8345;50.902;6.956;2023-02-28T12:11:59;2.57;;;2.10;;
16468;SDS011;8345;50.902;6.956;2023-02-28T12:17:27;2.23;;;2.03;;
16468;SDS011;8345;50.902;6.956;2023-02-28T12:20:02;2.40;;;2.20;;
16468;SDS011;8345;50.902;6.956;2023-02-28T12:22:34;2.37;;;2.17;;
16468;SDS011;8345;50.902;6.956;2023-02-28T12:27:54;2.33;;;2.13;;
16468;SDS011;8345;50.902;6.956;2023-02-28T12:30:22;2.80;;;1.93;;
16468;SDS011;8345;50.902;6.956;2023-02-28T12:32:52;2.73;;;2.10;;
16468;SDS011;8345;50.902;6.956;2023-02-28T12:35:23;2.53;;;2.30;;
16468;SDS011;8345;50.902;6.956;2023-02-28T12:37:53;2.53;;;2.00;;
16468;SDS011;8345;50.902;6.956;2023-02-28T12:40:23;2.60;;;2.40;;
16468;SDS011;8345;50.902;6.956;2023-02-28T12:42:52;6.53;;;2.80;;
16468;SDS011;8345;50.902;6.956;2023-02-28T12:45:22;3.40;;;2.70;;
16468;SDS011;8345;50.902;6.956;2023-02-28T12:47:52;3.30;;;2.33;;
16468;SDS011;8345;50.902;6.956;2023-02-28T12:50:22;2.63;;;2.43;;
16468;SDS011;8345;50.902;6.956;2023-02-28T12:52:51;3.47;;;2.43;;
16468;SDS011;8345;50.902;6.956;2023-02-28T12:55:21;3.10;;;2.80;;
16468;SDS011;8345;50.902;6.956;2023-02-28T12:57:52;3.57;;;2.63;;
16468;SDS011;8345;50.902;6.956;2023-02-28T13:00:24;2.90;;;2.70;;
16468;SDS011;8345;50.902;6.956;2023-02-28T13:03:01;2.70;;;2.50;;
16468;SDS011;8345;50.902;6.956;2023-02-28T13:05:54;3.53;;;2.90;;
16468;SDS011;8345;50.902;6.956;2023-02-28T13:08:34;3.27;;;2.97;;
16468;SDS011;8345;50.902;6.956;2023-02-28T13:11:06;3.70;;;2.50;;
16468;SDS011;8345;50.902;6.956;2023-02-28T13:13:33;4.80;;;2.90;;
16468;SDS011;8345;50.902;6.956;2023-02-28T13:16:04;3.60;;;3.30;;
16468;SDS011;8345;50.902;6.956;2023-02-28T13:18:34;3.23;;;2.93;;
16468;SDS011;8345;50.902;6.956;2023-02-28T13:21:03;3.30;;;2.80;;
16468;SDS011;8345;50.902;6.956;2023-02-28T13:29:27;3.00;;;2.80;;
16468;SDS011;8345;50.902;6.956;2023-02-28T13:34:46;4.03;;;3.23;;
16468;SDS011;8345;50.902;6.956;2023-02-28T13:37:32;4.77;;;3.30;;
16468;SDS011;8345;50.902;6.956;2023-02-28T13:40:06;3.20;;;2.90;;
16468;SDS011;8345;50.902;6.956;2023-02-28T13:42:34;3.33;;;3.03;;
16468;SDS011;8345;50.902;6.956;2023-02-28T13:45:22;6.10;;;3.20;;
16468;SDS011;8345;50.902;6.956;2023-02-28T13:47:52;2.97;;;2.73;;
16468;SDS011;8345;50.902;6.956;2023-02-28T13:50:22;3.47;;;2.73;;
16468;SDS011;8345;50.902;6.956;2023-02-28T13:52:53;3.43;;;2.90;;
16468;SDS011;8345;50.902;6.956;2023-02-28T13:55:24;3.63;;;3.20;;
16468;SDS011;8345;50.902;6.956;2023-02-28T14:00:37;3.20;;;2.90;;
16468;SDS011;8345;50.902;6.956;2023-02-28T14:03:16;3.73;;;3.20;;
16468;SDS011;8345;50.902;6.956;2023-02-28T14:05:49;3.83;;;3.10;;
16468;SDS011;8345;50.902;6.956;2023-02-28T14:08:34;3.63;;;3.27;;
16468;SDS011;8345;50.902;6.956;2023-02-28T14:11:03;3.27;;;2.90;;
16468;SDS011;8345;50.902;6.956;2023-02-28T14:13:38;3.40;;;3.10;;
16468;SDS011;8345;50.902;6.956;2023-02-28T14:16:09;3.37;;;3.00;;
16468;SDS011;8345;50.902;6.956;2023-02-28T14:18:37;3.60;;;3.30;;
16468;SDS011;8345;50.902;6.956;2023-02-28T14:21:13;4.17;;;3.10;;
16468;SDS011;8345;50.902;6.956;2023-02-28T14:23:44;3.40;;;3.10;;
16468;SDS011;8345;50.902;6.956;2023-02-28T14:26:17;3.43;;;3.23;;
16468;SDS011;8345;50.902;6.956;2023-02-28T14:29:06;3.73;;;3.37;;
16468;SDS011;8345;50.902;6.956;2023-02-28T14:31:44;4.27;;;3.57;;
16468;SDS011;8345;50.902;6.956;2023-02-28T14:34:20;5.10;;;3.20;;
16468;SDS011;8345;50.902;6.956;2023-02-28T14:36:52;3.00;;;2.70;;
16468;SDS011;8345;50.902;6.956;2023-02-28T14:39:20;4.40;;;3.00;;
16468;SDS011;8345;50.902;6.956;2023-02-28T14:41:48;4.27;;;3.33;;
16468;SDS011;8345;50.902;6.956;2023-02-28T14:44:16;3.50;;;3.13;;
16468;SDS011;8345;50.902;6.956;2023-02-28T14:46:45;3.20;;;2.90;;
16468;SDS011;8345;50.902;6.956;2023-02-28T14:49:16;3.33;;;2.83;;
16468;SDS011;8345;50.902;6.956;2023-02-28T14:51:43;4.07;;;3.53;;
16468;SDS011;8345;50.902;6.956;2023-02-28T14:54:14;3.90;;;3.23;;
16468;SDS011;8345;50.902;6.956;2023-02-28T14:56:42;4.20;;;3.40;;
16468;SDS011;8345;50.902;6.956;2023-02-28T14:59:22;4.07;;;3.67;;
16468;SDS011;8345;50.902;6.956;2023-02-28T15:01:50;3.77;;;3.20;;
16468;SDS011;8345;50.902;6.956;2023-02-28T15:04:26;3.50;;;2.80;;
16468;SDS011;8345;50.902;6.956;2023-02-28T15:09:46;3.80;;;3.17;;
16468;SDS011;8345;50.902;6.956;2023-02-28T15:12:13;3.40;;;3.10;;
16468;SDS011;8345;50.902;6.956;2023-02-28T15:14:41;3.80;;;3.20;;
16468;SDS011;8345;50.902;6.956;2023-02-28T15:17:14;3.33;;;3.03;;
16468;SDS011;8345;50.902;6.956;2023-02-28T15:19:43;3.37;;;3.00;;
16468;SDS011;8345;50.902;6.956;2023-02-28T15:22:15;3.57;;;3.13;;
16468;SDS011;8345;50.902;6.956;2023-02-28T15:24:44;3.90;;;3.47;;
16468;SDS011;8345;50.902;6.956;2023-02-28T15:27:14;3.60;;;3.30;;
16468;SDS011;8345;50.902;6.956;2023-02-28T15:29:43;4.43;;;3.30;;
16468;SDS011;8345;50.902;6.956;2023-02-28T15:32:23;3.33;;;3.03;;
16468;SDS011;8345;50.902;6.956;2023-02-28T15:34:51;4.10;;;3.03;;
16468;SDS011;8345;50.902;6.956;2023-02-28T15:37:30;3.27;;;3.00;;
16468;SDS011;8345;50.902;6.956;2023-02-28T15:40:05;5.47;;;3.20;;